sensor_id;sensor_type;location;lat;lon;timestamp;P1;durP1;ratioP1;P2;durP2;ratioP2
10529;SDS011;5313;48.834;9.228;2023-02-11T00:01:49;39.80;;;21.53;;
10529;SDS011;5313;48.834;9.228;2023-02-11T00:04:15;46.20;;;21.30;;
10529;SDS011;5313;48.834;9.228;2023-02-11T00:06:41;44.07;;;22.40;;
10529;SDS011;5313;48.834;9.228;2023-02-11T00:09:06;39.93;;;21.10;;
10529;SDS011;5313;48.834;9.228;2023-02-11T00:11:32;46.17;;;21.67;;
10529;SDS011;5313;48.834;9.228;2023-02-11T00:13:59;44.30;;;21.63;;
10529;SDS011;5313;48.834;9.228;2023-02-11T00:16:26;37.43;;;20.10;;
10529;SDS011;5313;48.834;9.228;2023-02-11T00:18:53;47.40;;;22.53;;
10529;SDS011;5313;48.834;9.228;2023-02-11T00:21:20;45.83;;;22.07;;
10529;SDS011;5313;48.834;9.228;2023-02-11T00:23:49;43.20;;;21.23;;
10529;SDS011;5313;48.834;9.228;2023-02-11T00:26:19;37.57;;;21.87;;
10529;SDS011;5313;48.834;9.228;2023-02-11T00:28:47;40.90;;;21.43;;
10529;SDS011;5313;48.834;9.228;2023-02-11T00:31:14;45.77;;;23.43;;
10529;SDS011;5313;48.834;9.228;2023-02-11T00:33:41;47.73;;;23.07;;
10529;SDS011;5313;48.834;9.228;2023-02-11T00:36:09;44.03;;;21.27;;
10529;SDS011;5313;48.834;9.228;2023-02-11T00:38:38;45.27;;;22.47;;
10529;SDS011;5313;48.834;9.228;2023-02-11T00:41:04;43.87;;;22.70;;
10529;SDS011;5313;48.834;9.228;2023-02-11T00:43:30;45.70;;;23.80;;
10529;SDS011;5313;48.834;9.228;2023-02-11T00:45:55;45.87;;;23.40;;
10529;SDS011;5313;48.834;9.228;2023-02-11T00:48:21;47.00;;;23.60;;
10529;SDS011;5313;48.834;9.228;2023-02-11T00:50:46;45.17;;;22.23;;
10529;SDS011;5313;48.834;9.228;2023-02-11T00:53:12;46.77;;;22.40;;
10529;SDS011;5313;48.834;9.228;2023-02-11T00:55:37;44.93;;;22.53;;
10529;SDS011;5313;48.834;9.228;2023-02-11T00:58:03;43.00;;;23.43;;
10529;SDS011;5313;48.834;9.228;2023-02-11T01:00:29;44.53;;;23.40;;
10529;SDS011;5313;48.834;9.228;2023-02-11T01:02:55;45.73;;;23.60;;
10529;SDS011;5313;48.834;9.228;2023-02-11T01:05:20;46.67;;;23.07;;
10529;SDS011;5313;48.834;9.228;2023-02-11T01:07:46;46.43;;;24.00;;
10529;SDS011;5313;48.834;9.228;2023-02-11T01:10:12;42.63;;;24.07;;
10529;SDS011;5313;48.834;9.228;2023-02-11T01:12:37;45.93;;;22.87;;
10529;SDS011;5313;48.834;9.228;2023-02-11T01:15:05;44.87;;;21.90;;
10529;SDS011;5313;48.834;9.228;2023-02-11T01:17:32;46.57;;;23.47;;
10529;SDS011;5313;48.834;9.228;2023-02-11T01:20:00;49.40;;;23.37;;
10529;SDS011;5313;48.834;9.228;2023-02-11T01:22:28;40.77;;;22.20;;
10529;SDS011;5313;48.834;9.228;2023-02-11T01:24:54;40.27;;;21.50;;
10529;SDS011;5313;48.834;9.228;2023-02-11T01:27:20;45.43;;;22.50;;
10529;SDS011;5313;48.834;9.228;2023-02-11T01:29:45;47.40;;;24.00;;
10529;SDS011;5313;48.834;9.228;2023-02-11T01:32:11;44.87;;;22.87;;
10529;SDS011;5313;48.834;9.228;2023-02-11T01:34:36;41.23;;;22.80;;
10529;SDS011;5313;48.834;9.228;2023-02-11T01:37:02;39.43;;;21.03;;
10529;SDS011;5313;48.834;9.228;2023-02-11T01:39:27;40.90;;;22.27;;
10529;SDS011;5313;48.834;9.228;2023-02-11T01:41:53;41.80;;;21.37;;
10529;SDS011;5313;48.834;9.228;2023-02-11T01:44:26;48.63;;;23.60;;
10529;SDS011;5313;48.834;9.228;2023-02-11T01:46:54;44.03;;;22.07;;
10529;SDS011;5313;48.834;9.228;2023-02-11T01:49:26;41.87;;;22.33;;
10529;SDS011;5313;48.834;9.228;2023-02-11T01:54:27;42.47;;;21.60;;
10529;SDS011;5313;48.834;9.228;2023-02-11T01:57:15;38.80;;;20.93;;
10529;SDS011;5313;48.834;9.228;2023-02-11T01:59:56;48.50;;;22.80;;
10529;SDS011;5313;48.834;9.228;2023-02-11T02:02:29;50.40;;;23.20;;
10529;SDS011;5313;48.834;9.228;2023-02-11T02:05:03;46.10;;;22.13;;
10529;SDS011;5313;48.834;9.228;2023-02-11T02:07:35;44.37;;;22.70;;
10529;SDS011;5313;48.834;9.228;2023-02-11T02:10:08;48.10;;;23.43;;
10529;SDS011;5313;48.834;9.228;2023-02-11T02:12:37;42.83;;;22.80;;
10529;SDS011;5313;48.834;9.228;2023-02-11T02:18:13;43.13;;;23.40;;
10529;SDS011;5313;48.834;9.228;2023-02-11T02:21:28;42.97;;;22.05;;
10529;SDS011;5313;48.834;9.228;2023-02-11T02:27:22;39.93;;;21.33;;
10529;SDS011;5313;48.834;9.228;2023-02-11T02:30:21;41.20;;;20.80;;
10529;SDS011;5313;48.834;9.228;2023-02-11T02:32:56;37.67;;;20.57;;
10529;SDS011;5313;48.834;9.228;2023-02-11T02:38:10;40.03;;;21.93;;
10529;SDS011;5313;48.834;9.228;2023-02-11T02:41:00;44.55;;;21.60;;
10529;SDS011;5313;48.834;9.228;2023-02-11T02:43:31;48.03;;;23.73;;
10529;SDS011;5313;48.834;9.228;2023-02-11T02:48:37;41.67;;;22.27;;
10529;SDS011;5313;48.834;9.228;2023-02-11T02:51:07;42.80;;;22.60;;
10529;SDS011;5313;48.834;9.228;2023-02-11T02:57:03;42.60;;;20.10;;
10529;SDS011;5313;48.834;9.228;2023-02-11T03:02:18;39.00;;;21.60;;
10529;SDS011;5313;48.834;9.228;2023-02-11T03:05:03;35.80;;;20.40;;
10529;SDS011;5313;48.834;9.228;2023-02-11T03:07:43;37.20;;;19.97;;
10529;SDS011;5313;48.834;9.228;2023-02-11T03:10:30;43.10;;;22.37;;
10529;SDS011;5313;48.834;9.228;2023-02-11T03:13:00;41.97;;;21.57;;
10529;SDS011;5313;48.834;9.228;2023-02-11T03:15:27;42.70;;;21.47;;
10529;SDS011;5313;48.834;9.228;2023-02-11T03:17:57;37.57;;;20.80;;
10529;SDS011;5313;48.834;9.228;2023-02-11T03:20:24;43.23;;;21.13;;
10529;SDS011;5313;48.834;9.228;2023-02-11T03:25:18;41.07;;;22.23;;
10529;SDS011;5313;48.834;9.228;2023-02-11T03:27:49;36.33;;;20.67;;
10529;SDS011;5313;48.834;9.228;2023-02-11T03:32:54;39.97;;;21.90;;
10529;SDS011;5313;48.834;9.228;2023-02-11T03:35:32;41.07;;;22.03;;
10529;SDS011;5313;48.834;9.228;2023-02-11T03:38:04;43.40;;;22.80;;
10529;SDS011;5313;48.834;9.228;2023-02-11T03:40:34;38.73;;;21.37;;
10529;SDS011;5313;48.834;9.228;2023-02-11T03:43:05;39.87;;;21.53;;
10529;SDS011;5313;48.834;9.228;2023-02-11T03:45:37;37.27;;;20.23;;
10529;SDS011;5313;48.834;9.228;2023-02-11T03:48:22;43.83;;;21.43;;
10529;SDS011;5313;48.834;9.228;2023-02-11T03:50:51;44.17;;;21.90;;
10529;SDS011;5313;48.834;9.228;2023-02-11T03:53:19;41.50;;;21.00;;
10529;SDS011;5313;48.834;9.228;2023-02-11T03:55:46;45.10;;;21.27;;
10529;SDS011;5313;48.834;9.228;2023-02-11T03:58:14;42.63;;;22.57;;
10529;SDS011;5313;48.834;9.228;2023-02-11T04:00:40;42.40;;;21.83;;
10529;SDS011;5313;48.834;9.228;2023-02-11T04:03:08;42.67;;;20.27;;
10529;SDS011;5313;48.834;9.228;2023-02-11T04:05:35;37.00;;;18.93;;
10529;SDS011;5313;48.834;9.228;2023-02-11T04:08:00;40.70;;;21.63;;
10529;SDS011;5313;48.834;9.228;2023-02-11T04:10:26;35.37;;;20.10;;
10529;SDS011;5313;48.834;9.228;2023-02-11T04:12:52;35.23;;;20.03;;
10529;SDS011;5313;48.834;9.228;2023-02-11T04:15:17;39.73;;;20.60;;
10529;SDS011;5313;48.834;9.228;2023-02-11T04:17:43;39.87;;;21.90;;
10529;SDS011;5313;48.834;9.228;2023-02-11T04:20:09;40.43;;;21.13;;
10529;SDS011;5313;48.834;9.228;2023-02-11T04:22:36;39.03;;;20.97;;
10529;SDS011;5313;48.834;9.228;2023-02-11T04:25:02;40.87;;;21.30;;
10529;SDS011;5313;48.834;9.228;2023-02-11T04:27:28;41.10;;;20.77;;
10529;SDS011;5313;48.834;9.228;2023-02-11T04:29:54;38.70;;;20.70;;
10529;SDS011;5313;48.834;9.228;2023-02-11T04:32:19;38.47;;;21.63;;
10529;SDS011;5313;48.834;9.228;2023-02-11T04:34:45;39.33;;;20.97;;
10529;SDS011;5313;48.834;9.228;2023-02-11T04:37:11;36.30;;;20.40;;
10529;SDS011;5313;48.834;9.228;2023-02-11T04:39:36;41.83;;;20.57;;
10529;SDS011;5313;48.834;9.228;2023-02-11T04:42:02;40.37;;;20.97;;
10529;SDS011;5313;48.834;9.228;2023-02-11T04:44:28;36.00;;;20.23;;
10529;SDS011;5313;48.834;9.228;2023-02-11T04:46:53;37.23;;;20.50;;
10529;SDS011;5313;48.834;9.228;2023-02-11T04:49:19;35.80;;;18.80;;
10529;SDS011;5313;48.834;9.228;2023-02-11T04:51:45;36.80;;;19.93;;
10529;SDS011;5313;48.834;9.228;2023-02-11T04:54:10;41.33;;;20.73;;
10529;SDS011;5313;48.834;9.228;2023-02-11T04:56:36;40.30;;;21.33;;
10529;SDS011;5313;48.834;9.228;2023-02-11T04:59:02;35.77;;;20.90;;
10529;SDS011;5313;48.834;9.228;2023-02-11T05:01:28;37.70;;;19.90;;
10529;SDS011;5313;48.834;9.228;2023-02-11T05:03:54;38.67;;;20.93;;
10529;SDS011;5313;48.834;9.228;2023-02-11T05:06:20;36.53;;;20.53;;
10529;SDS011;5313;48.834;9.228;2023-02-11T05:08:45;37.90;;;20.87;;
10529;SDS011;5313;48.834;9.228;2023-02-11T05:11:13;38.13;;;20.27;;
10529;SDS011;5313;48.834;9.228;2023-02-11T05:13:41;34.60;;;18.67;;
10529;SDS011;5313;48.834;9.228;2023-02-11T05:16:07;35.37;;;19.37;;
10529;SDS011;5313;48.834;9.228;2023-02-11T05:18:32;30.60;;;18.87;;
10529;SDS011;5313;48.834;9.228;2023-02-11T05:20:58;35.67;;;20.00;;
10529;SDS011;5313;48.834;9.228;2023-02-11T05:23:23;33.67;;;18.20;;
10529;SDS011;5313;48.834;9.228;2023-02-11T05:25:49;26.53;;;15.90;;
10529;SDS011;5313;48.834;9.228;2023-02-11T05:28:14;26.33;;;15.43;;
10529;SDS011;5313;48.834;9.228;2023-02-11T05:30:40;37.07;;;19.37;;
10529;SDS011;5313;48.834;9.228;2023-02-11T05:33:06;33.20;;;18.80;;
10529;SDS011;5313;48.834;9.228;2023-02-11T05:35:31;36.43;;;18.83;;
10529;SDS011;5313;48.834;9.228;2023-02-11T05:37:57;36.67;;;19.07;;
10529;SDS011;5313;48.834;9.228;2023-02-11T05:40:22;31.60;;;18.53;;
10529;SDS011;5313;48.834;9.228;2023-02-11T05:42:48;33.47;;;19.27;;
10529;SDS011;5313;48.834;9.228;2023-02-11T05:45:13;31.00;;;17.53;;
10529;SDS011;5313;48.834;9.228;2023-02-11T05:47:39;29.77;;;17.53;;
10529;SDS011;5313;48.834;9.228;2023-02-11T05:50:04;35.53;;;18.53;;
10529;SDS011;5313;48.834;9.228;2023-02-11T05:52:30;32.23;;;18.77;;
10529;SDS011;5313;48.834;9.228;2023-02-11T05:54:55;33.77;;;18.30;;
10529;SDS011;5313;48.834;9.228;2023-02-11T05:57:21;33.70;;;19.57;;
10529;SDS011;5313;48.834;9.228;2023-02-11T05:59:46;34.83;;;18.13;;
10529;SDS011;5313;48.834;9.228;2023-02-11T06:02:12;37.53;;;20.07;;
10529;SDS011;5313;48.834;9.228;2023-02-11T06:04:37;35.10;;;19.10;;
10529;SDS011;5313;48.834;9.228;2023-02-11T06:07:03;32.77;;;17.63;;
10529;SDS011;5313;48.834;9.228;2023-02-11T06:09:29;33.03;;;18.30;;
10529;SDS011;5313;48.834;9.228;2023-02-11T06:11:54;31.23;;;17.47;;
10529;SDS011;5313;48.834;9.228;2023-02-11T06:14:20;34.00;;;18.90;;
10529;SDS011;5313;48.834;9.228;2023-02-11T06:16:46;33.03;;;18.30;;
10529;SDS011;5313;48.834;9.228;2023-02-11T06:19:11;29.97;;;17.37;;
10529;SDS011;5313;48.834;9.228;2023-02-11T06:21:37;29.47;;;17.20;;
10529;SDS011;5313;48.834;9.228;2023-02-11T06:24:03;37.33;;;18.80;;
10529;SDS011;5313;48.834;9.228;2023-02-11T06:26:29;28.97;;;17.20;;
10529;SDS011;5313;48.834;9.228;2023-02-11T06:28:55;34.70;;;18.87;;
10529;SDS011;5313;48.834;9.228;2023-02-11T06:31:23;34.73;;;18.97;;
10529;SDS011;5313;48.834;9.228;2023-02-11T06:33:48;36.13;;;17.67;;
10529;SDS011;5313;48.834;9.228;2023-02-11T06:36:15;30.27;;;17.97;;
10529;SDS011;5313;48.834;9.228;2023-02-11T06:38:42;32.33;;;18.30;;
10529;SDS011;5313;48.834;9.228;2023-02-11T06:41:12;31.87;;;17.77;;
10529;SDS011;5313;48.834;9.228;2023-02-11T06:43:39;31.27;;;17.20;;
10529;SDS011;5313;48.834;9.228;2023-02-11T06:46:05;28.43;;;17.10;;
10529;SDS011;5313;48.834;9.228;2023-02-11T06:48:31;35.63;;;20.30;;
10529;SDS011;5313;48.834;9.228;2023-02-11T06:51:01;65.27;;;30.57;;
10529;SDS011;5313;48.834;9.228;2023-02-11T06:53:29;41.57;;;20.73;;
10529;SDS011;5313;48.834;9.228;2023-02-11T06:55:54;31.70;;;18.37;;
10529;SDS011;5313;48.834;9.228;2023-02-11T06:58:20;32.73;;;17.87;;
10529;SDS011;5313;48.834;9.228;2023-02-11T07:00:46;33.47;;;18.60;;
10529;SDS011;5313;48.834;9.228;2023-02-11T07:03:11;37.40;;;21.13;;
10529;SDS011;5313;48.834;9.228;2023-02-11T07:05:37;38.83;;;20.10;;
10529;SDS011;5313;48.834;9.228;2023-02-11T07:08:05;33.90;;;19.40;;
10529;SDS011;5313;48.834;9.228;2023-02-11T07:10:32;38.37;;;20.03;;
10529;SDS011;5313;48.834;9.228;2023-02-11T07:12:57;43.47;;;21.80;;
10529;SDS011;5313;48.834;9.228;2023-02-11T07:15:23;38.30;;;21.03;;
10529;SDS011;5313;48.834;9.228;2023-02-11T07:17:48;36.80;;;20.77;;
10529;SDS011;5313;48.834;9.228;2023-02-11T07:20:14;30.07;;;18.03;;
10529;SDS011;5313;48.834;9.228;2023-02-11T07:22:40;33.07;;;18.63;;
10529;SDS011;5313;48.834;9.228;2023-02-11T07:25:05;29.90;;;18.53;;
10529;SDS011;5313;48.834;9.228;2023-02-11T07:27:31;30.77;;;17.27;;
10529;SDS011;5313;48.834;9.228;2023-02-11T07:29:57;33.93;;;18.10;;
10529;SDS011;5313;48.834;9.228;2023-02-11T07:32:22;36.57;;;19.87;;
10529;SDS011;5313;48.834;9.228;2023-02-11T07:34:48;34.70;;;19.47;;
10529;SDS011;5313;48.834;9.228;2023-02-11T07:37:13;32.57;;;18.77;;
10529;SDS011;5313;48.834;9.228;2023-02-11T07:39:39;32.23;;;18.20;;
10529;SDS011;5313;48.834;9.228;2023-02-11T07:42:05;30.93;;;18.80;;
10529;SDS011;5313;48.834;9.228;2023-02-11T07:44:30;32.97;;;17.97;;
10529;SDS011;5313;48.834;9.228;2023-02-11T07:46:57;32.77;;;18.73;;
10529;SDS011;5313;48.834;9.228;2023-02-11T07:49:23;32.63;;;17.60;;
10529;SDS011;5313;48.834;9.228;2023-02-11T07:51:49;32.37;;;18.30;;
10529;SDS011;5313;48.834;9.228;2023-02-11T07:54:15;32.80;;;19.10;;
10529;SDS011;5313;48.834;9.228;2023-02-11T07:56:41;30.77;;;18.60;;
10529;SDS011;5313;48.834;9.228;2023-02-11T07:59:07;31.17;;;18.70;;
10529;SDS011;5313;48.834;9.228;2023-02-11T08:01:33;31.63;;;18.47;;
10529;SDS011;5313;48.834;9.228;2023-02-11T08:03:59;35.00;;;19.40;;
10529;SDS011;5313;48.834;9.228;2023-02-11T08:06:26;33.10;;;19.00;;
10529;SDS011;5313;48.834;9.228;2023-02-11T08:08:54;35.57;;;18.93;;
10529;SDS011;5313;48.834;9.228;2023-02-11T08:11:21;31.33;;;18.37;;
10529;SDS011;5313;48.834;9.228;2023-02-11T08:13:48;30.33;;;17.67;;
10529;SDS011;5313;48.834;9.228;2023-02-11T08:16:17;30.60;;;17.53;;
10529;SDS011;5313;48.834;9.228;2023-02-11T08:18:48;33.20;;;17.83;;
10529;SDS011;5313;48.834;9.228;2023-02-11T08:21:14;31.37;;;16.47;;
10529;SDS011;5313;48.834;9.228;2023-02-11T08:23:41;28.83;;;17.00;;
10529;SDS011;5313;48.834;9.228;2023-02-11T08:26:11;31.93;;;18.17;;
10529;SDS011;5313;48.834;9.228;2023-02-11T08:28:39;29.67;;;16.77;;
10529;SDS011;5313;48.834;9.228;2023-02-11T08:31:08;36.40;;;17.10;;
10529;SDS011;5313;48.834;9.228;2023-02-11T08:33:42;30.33;;;17.40;;
10529;SDS011;5313;48.834;9.228;2023-02-11T08:36:09;29.10;;;16.63;;
10529;SDS011;5313;48.834;9.228;2023-02-11T08:38:36;30.57;;;16.97;;
10529;SDS011;5313;48.834;9.228;2023-02-11T08:41:02;27.07;;;16.40;;
10529;SDS011;5313;48.834;9.228;2023-02-11T08:43:28;29.87;;;17.70;;
10529;SDS011;5313;48.834;9.228;2023-02-11T08:45:54;28.47;;;17.30;;
10529;SDS011;5313;48.834;9.228;2023-02-11T08:48:19;25.97;;;16.40;;
10529;SDS011;5313;48.834;9.228;2023-02-11T08:50:45;27.53;;;16.83;;
10529;SDS011;5313;48.834;9.228;2023-02-11T08:53:11;32.07;;;16.87;;
10529;SDS011;5313;48.834;9.228;2023-02-11T08:55:36;29.33;;;17.50;;
10529;SDS011;5313;48.834;9.228;2023-02-11T08:58:02;26.13;;;16.23;;
10529;SDS011;5313;48.834;9.228;2023-02-11T09:00:27;27.73;;;16.03;;
10529;SDS011;5313;48.834;9.228;2023-02-11T09:02:53;26.87;;;16.03;;
10529;SDS011;5313;48.834;9.228;2023-02-11T09:05:19;24.70;;;14.57;;
10529;SDS011;5313;48.834;9.228;2023-02-11T09:07:45;28.53;;;16.70;;
10529;SDS011;5313;48.834;9.228;2023-02-11T09:10:11;27.20;;;16.57;;
10529;SDS011;5313;48.834;9.228;2023-02-11T09:12:36;25.53;;;16.03;;
10529;SDS011;5313;48.834;9.228;2023-02-11T09:15:02;26.80;;;16.27;;
10529;SDS011;5313;48.834;9.228;2023-02-11T09:17:27;28.77;;;15.60;;
10529;SDS011;5313;48.834;9.228;2023-02-11T09:19:53;28.20;;;15.97;;
10529;SDS011;5313;48.834;9.228;2023-02-11T09:22:18;28.20;;;15.13;;
10529;SDS011;5313;48.834;9.228;2023-02-11T09:24:44;24.27;;;16.07;;
10529;SDS011;5313;48.834;9.228;2023-02-11T09:27:09;27.13;;;16.47;;
10529;SDS011;5313;48.834;9.228;2023-02-11T09:29:35;29.73;;;17.80;;
10529;SDS011;5313;48.834;9.228;2023-02-11T09:32:00;28.90;;;17.13;;
10529;SDS011;5313;48.834;9.228;2023-02-11T09:34:26;25.63;;;16.80;;
10529;SDS011;5313;48.834;9.228;2023-02-11T09:36:51;29.53;;;16.83;;
10529;SDS011;5313;48.834;9.228;2023-02-11T09:39:18;28.27;;;16.73;;
10529;SDS011;5313;48.834;9.228;2023-02-11T09:44:34;29.17;;;17.03;;
10529;SDS011;5313;48.834;9.228;2023-02-11T09:47:02;29.50;;;17.50;;
10529;SDS011;5313;48.834;9.228;2023-02-11T09:52:25;24.87;;;15.77;;
10529;SDS011;5313;48.834;9.228;2023-02-11T09:57:51;26.87;;;16.10;;
10529;SDS011;5313;48.834;9.228;2023-02-11T10:00:31;27.33;;;16.80;;
10529;SDS011;5313;48.834;9.228;2023-02-11T10:09:10;27.07;;;16.73;;
10529;SDS011;5313;48.834;9.228;2023-02-11T10:22:42;23.53;;;14.40;;
10529;SDS011;5313;48.834;9.228;2023-02-11T10:25:19;24.37;;;15.93;;
10529;SDS011;5313;48.834;9.228;2023-02-11T10:27:47;21.83;;;14.93;;
10529;SDS011;5313;48.834;9.228;2023-02-11T10:33:06;22.93;;;14.60;;
10529;SDS011;5313;48.834;9.228;2023-02-11T10:35:50;21.03;;;13.87;;
10529;SDS011;5313;48.834;9.228;2023-02-11T10:38:16;18.60;;;12.90;;
10529;SDS011;5313;48.834;9.228;2023-02-11T10:40:41;17.97;;;11.10;;
10529;SDS011;5313;48.834;9.228;2023-02-11T10:43:11;17.00;;;10.97;;
10529;SDS011;5313;48.834;9.228;2023-02-11T10:45:41;18.03;;;10.97;;
10529;SDS011;5313;48.834;9.228;2023-02-11T10:51:21;17.53;;;10.13;;
10529;SDS011;5313;48.834;9.228;2023-02-11T10:56:29;14.37;;;10.60;;
10529;SDS011;5313;48.834;9.228;2023-02-11T11:04:47;19.60;;;10.67;;
10529;SDS011;5313;48.834;9.228;2023-02-11T11:12:25;15.20;;;10.33;;
10529;SDS011;5313;48.834;9.228;2023-02-11T11:14:54;15.17;;;10.73;;
10529;SDS011;5313;48.834;9.228;2023-02-11T11:17:25;17.40;;;9.97;;
10529;SDS011;5313;48.834;9.228;2023-02-11T11:20:14;18.70;;;9.80;;
10529;SDS011;5313;48.834;9.228;2023-02-11T11:22:40;13.73;;;9.47;;
10529;SDS011;5313;48.834;9.228;2023-02-11T11:25:26;13.37;;;8.63;;
10529;SDS011;5313;48.834;9.228;2023-02-11T11:27:57;15.40;;;9.37;;
10529;SDS011;5313;48.834;9.228;2023-02-11T11:30:40;10.40;;;8.10;;
10529;SDS011;5313;48.834;9.228;2023-02-11T11:33:16;13.83;;;8.90;;
10529;SDS011;5313;48.834;9.228;2023-02-11T11:38:24;9.47;;;7.00;;
10529;SDS011;5313;48.834;9.228;2023-02-11T11:43:39;10.47;;;6.73;;
10529;SDS011;5313;48.834;9.228;2023-02-11T11:46:38;7.47;;;6.03;;
10529;SDS011;5313;48.834;9.228;2023-02-11T11:49:13;12.93;;;6.87;;
10529;SDS011;5313;48.834;9.228;2023-02-11T11:52:04;9.60;;;6.40;;
10529;SDS011;5313;48.834;9.228;2023-02-11T11:54:53;7.20;;;5.53;;
10529;SDS011;5313;48.834;9.228;2023-02-11T11:57:24;9.50;;;5.30;;
10529;SDS011;5313;48.834;9.228;2023-02-11T11:59:52;8.37;;;4.63;;
10529;SDS011;5313;48.834;9.228;2023-02-11T12:05:24;8.53;;;5.60;;
10529;SDS011;5313;48.834;9.228;2023-02-11T12:10:37;8.83;;;6.10;;
10529;SDS011;5313;48.834;9.228;2023-02-11T12:18:54;9.70;;;6.40;;
10529;SDS011;5313;48.834;9.228;2023-02-11T12:27:14;8.30;;;6.13;;
10529;SDS011;5313;48.834;9.228;2023-02-11T12:30:21;11.13;;;6.23;;
10529;SDS011;5313;48.834;9.228;2023-02-11T12:32:54;12.40;;;6.47;;
10529;SDS011;5313;48.834;9.228;2023-02-11T12:38:22;9.37;;;6.37;;
10529;SDS011;5313;48.834;9.228;2023-02-11T12:43:33;11.17;;;7.03;;
10529;SDS011;5313;48.834;9.228;2023-02-11T12:48:49;11.33;;;7.57;;
10529;SDS011;5313;48.834;9.228;2023-02-11T12:54:16;11.60;;;7.47;;
10529;SDS011;5313;48.834;9.228;2023-02-11T12:56:51;16.20;;;9.27;;
10529;SDS011;5313;48.834;9.228;2023-02-11T12:59:37;14.63;;;8.77;;
10529;SDS011;5313;48.834;9.228;2023-02-11T13:02:13;16.33;;;8.90;;
10529;SDS011;5313;48.834;9.228;2023-02-11T13:04:55;15.50;;;9.17;;
10529;SDS011;5313;48.834;9.228;2023-02-11T13:07:28;16.97;;;8.80;;
10529;SDS011;5313;48.834;9.228;2023-02-11T13:10:00;14.53;;;8.63;;
10529;SDS011;5313;48.834;9.228;2023-02-11T13:12:31;18.80;;;9.97;;
10529;SDS011;5313;48.834;9.228;2023-02-11T13:15:17;15.73;;;10.17;;
10529;SDS011;5313;48.834;9.228;2023-02-11T13:17:52;18.60;;;10.57;;
10529;SDS011;5313;48.834;9.228;2023-02-11T13:20:31;13.90;;;9.77;;
10529;SDS011;5313;48.834;9.228;2023-02-11T13:23:14;16.53;;;10.83;;
10529;SDS011;5313;48.834;9.228;2023-02-11T13:26:02;19.47;;;10.90;;
10529;SDS011;5313;48.834;9.228;2023-02-11T13:31:16;19.97;;;11.03;;
10529;SDS011;5313;48.834;9.228;2023-02-11T13:33:44;18.70;;;11.53;;
10529;SDS011;5313;48.834;9.228;2023-02-11T13:36:14;18.60;;;10.87;;
10529;SDS011;5313;48.834;9.228;2023-02-11T13:38:50;21.77;;;11.73;;
10529;SDS011;5313;48.834;9.228;2023-02-11T13:41:28;21.27;;;12.00;;
10529;SDS011;5313;48.834;9.228;2023-02-11T13:51:53;17.80;;;11.07;;
10529;SDS011;5313;48.834;9.228;2023-02-11T13:54:23;20.53;;;12.07;;
10529;SDS011;5313;48.834;9.228;2023-02-11T13:59:45;17.80;;;11.20;;
10529;SDS011;5313;48.834;9.228;2023-02-11T14:02:22;21.37;;;12.13;;
10529;SDS011;5313;48.834;9.228;2023-02-11T14:10:50;18.77;;;11.90;;
10529;SDS011;5313;48.834;9.228;2023-02-11T14:13:31;20.27;;;12.03;;
10529;SDS011;5313;48.834;9.228;2023-02-11T14:16:08;18.30;;;11.93;;
10529;SDS011;5313;48.834;9.228;2023-02-11T14:21:09;20.83;;;11.70;;
10529;SDS011;5313;48.834;9.228;2023-02-11T14:23:37;17.20;;;11.23;;
10529;SDS011;5313;48.834;9.228;2023-02-11T14:31:35;19.13;;;11.07;;
10529;SDS011;5313;48.834;9.228;2023-02-11T14:34:04;17.43;;;10.50;;
10529;SDS011;5313;48.834;9.228;2023-02-11T14:40:28;17.90;;;11.10;;
10529;SDS011;5313;48.834;9.228;2023-02-11T14:42:38;16.97;;;10.20;;
10529;SDS011;5313;48.834;9.228;2023-02-11T14:45:05;18.43;;;11.30;;
10529;SDS011;5313;48.834;9.228;2023-02-11T14:47:42;15.97;;;11.10;;
10529;SDS011;5313;48.834;9.228;2023-02-11T14:50:52;19.30;;;12.03;;
10529;SDS011;5313;48.834;9.228;2023-02-11T14:53:02;18.00;;;10.73;;
10529;SDS011;5313;48.834;9.228;2023-02-11T14:55:31;18.40;;;11.60;;
10529;SDS011;5313;48.834;9.228;2023-02-11T14:58:20;17.10;;;11.03;;
10529;SDS011;5313;48.834;9.228;2023-02-11T15:00:57;13.83;;;10.07;;
10529;SDS011;5313;48.834;9.228;2023-02-11T15:03:31;18.90;;;10.67;;
10529;SDS011;5313;48.834;9.228;2023-02-11T15:06:38;19.67;;;10.83;;
10529;SDS011;5313;48.834;9.228;2023-02-11T15:09:05;18.43;;;10.77;;
10529;SDS011;5313;48.834;9.228;2023-02-11T15:11:40;15.37;;;10.63;;
10529;SDS011;5313;48.834;9.228;2023-02-11T15:14:13;14.83;;;10.43;;
10529;SDS011;5313;48.834;9.228;2023-02-11T15:16:58;16.60;;;10.73;;
10529;SDS011;5313;48.834;9.228;2023-02-11T15:19:36;16.97;;;10.33;;
10529;SDS011;5313;48.834;9.228;2023-02-11T15:22:06;18.63;;;10.63;;
10529;SDS011;5313;48.834;9.228;2023-02-11T15:24:42;18.20;;;10.87;;
10529;SDS011;5313;48.834;9.228;2023-02-11T15:29:37;18.10;;;11.10;;
10529;SDS011;5313;48.834;9.228;2023-02-11T15:34:33;17.27;;;10.13;;
10529;SDS011;5313;48.834;9.228;2023-02-11T15:36:59;17.03;;;10.40;;
10529;SDS011;5313;48.834;9.228;2023-02-11T15:39:35;16.10;;;10.47;;
10529;SDS011;5313;48.834;9.228;2023-02-11T15:44:42;17.03;;;10.60;;
10529;SDS011;5313;48.834;9.228;2023-02-11T15:47:08;15.80;;;10.67;;
10529;SDS011;5313;48.834;9.228;2023-02-11T15:49:35;18.50;;;11.23;;
10529;SDS011;5313;48.834;9.228;2023-02-11T15:52:01;17.77;;;10.57;;
10529;SDS011;5313;48.834;9.228;2023-02-11T15:54:27;15.17;;;10.57;;
10529;SDS011;5313;48.834;9.228;2023-02-11T15:57:00;18.13;;;10.30;;
10529;SDS011;5313;48.834;9.228;2023-02-11T15:59:32;17.47;;;10.87;;
10529;SDS011;5313;48.834;9.228;2023-02-11T16:02:19;16.33;;;10.70;;
10529;SDS011;5313;48.834;9.228;2023-02-11T16:04:52;16.60;;;11.13;;
10529;SDS011;5313;48.834;9.228;2023-02-11T16:07:36;18.33;;;11.27;;
10529;SDS011;5313;48.834;9.228;2023-02-11T16:10:02;19.30;;;11.97;;
10529;SDS011;5313;48.834;9.228;2023-02-11T16:12:27;17.30;;;11.20;;
10529;SDS011;5313;48.834;9.228;2023-02-11T16:14:56;19.00;;;13.00;;
10529;SDS011;5313;48.834;9.228;2023-02-11T16:17:25;20.03;;;12.53;;
10529;SDS011;5313;48.834;9.228;2023-02-11T16:19:52;19.27;;;12.27;;
10529;SDS011;5313;48.834;9.228;2023-02-11T16:22:23;17.63;;;12.37;;
10529;SDS011;5313;48.834;9.228;2023-02-11T16:24:52;18.43;;;12.53;;
10529;SDS011;5313;48.834;9.228;2023-02-11T16:29:52;19.40;;;12.23;;
10529;SDS011;5313;48.834;9.228;2023-02-11T16:32:19;22.70;;;13.27;;
10529;SDS011;5313;48.834;9.228;2023-02-11T16:34:46;18.50;;;12.83;;
10529;SDS011;5313;48.834;9.228;2023-02-11T16:37:13;19.93;;;13.37;;
10529;SDS011;5313;48.834;9.228;2023-02-11T16:39:39;22.97;;;13.60;;
10529;SDS011;5313;48.834;9.228;2023-02-11T16:42:04;23.67;;;14.33;;
10529;SDS011;5313;48.834;9.228;2023-02-11T16:44:33;24.27;;;13.60;;
10529;SDS011;5313;48.834;9.228;2023-02-11T16:46:59;21.83;;;13.63;;
10529;SDS011;5313;48.834;9.228;2023-02-11T16:49:30;24.47;;;15.37;;
10529;SDS011;5313;48.834;9.228;2023-02-11T16:52:00;20.20;;;14.20;;
10529;SDS011;5313;48.834;9.228;2023-02-11T16:54:29;22.77;;;13.60;;
10529;SDS011;5313;48.834;9.228;2023-02-11T16:56:55;22.57;;;15.20;;
10529;SDS011;5313;48.834;9.228;2023-02-11T16:59:21;23.73;;;15.90;;
10529;SDS011;5313;48.834;9.228;2023-02-11T17:01:47;22.00;;;14.57;;
10529;SDS011;5313;48.834;9.228;2023-02-11T17:04:18;23.53;;;14.43;;
10529;SDS011;5313;48.834;9.228;2023-02-11T17:06:52;22.07;;;14.73;;
10529;SDS011;5313;48.834;9.228;2023-02-11T17:09:18;25.10;;;15.33;;
10529;SDS011;5313;48.834;9.228;2023-02-11T17:11:47;24.90;;;14.37;;
10529;SDS011;5313;48.834;9.228;2023-02-11T17:14:13;23.93;;;15.43;;
10529;SDS011;5313;48.834;9.228;2023-02-11T17:16:39;22.57;;;14.93;;